Time,TemperatureF,DewpointF,PressureIn,WindDirection,WindDirectionDegrees,WindSpeedMPH,WindSpeedGustMPH,Humidity,HourlyPrecipIn,Conditions,Clouds,dailyrainin,SoftwareType,DateUTC
2013-09-14 00:04:00,84.6,69.0,29.89,East,83,6.0,9.0,59,0.00,,,0.00,weatherlink.com 1.10,2013-09-14 05:04:00,
2013-09-14 00:19:00,84.5,69.0,29.89,East,85,7.0,13.0,59,0.00,,,0.00,weatherlink.com 1.10,2013-09-14 05:19:00,
2013-09-14 00:34:00,84.3,68.0,29.89,East,82,5.0,9.0,59,0.00,,,0.00,weatherlink.com 1.10,2013-09-14 05:34:00,
2013-09-14 00:49:00,84.0,68.0,29.89,East,83,5.0,9.0,59,0.00,,,0.00,weatherlink.com 1.10,2013-09-14 05:49:00,
2013-09-14 01:04:00,83.7,68.0,29.89,ENE,71,7.0,8.0,60,0.00,,,0.00,weatherlink.com 1.10,2013-09-14 06:04:00,
2013-09-14 01:19:00,83.4,68.0,29.89,East,82,7.0,10.0,60,0.00,,,0.00,weatherlink.com 1.10,2013-09-14 06:19:00,
2013-09-14 01:34:00,83.2,68.0,29.89,ENE,71,6.0,10.0,60,0.00,,,0.00,weatherlink.com 1.10,2013-09-14 06:34:00,
2013-09-14 01:49:00,82.9,68.0,29.89,East,81,4.0,9.0,60,0.00,,,0.00,weatherlink.com 1.10,2013-09-14 06:49:00,
2013-09-14 02:04:00,82.8,67.0,29.89,East,82,5.0,8.0,60,0.00,,,0.00,weatherlink.com 1.10,2013-09-14 07:04:00,
2013-09-14 02:19:00,82.7,67.0,29.89,East,101,3.0,8.0,60,0.00,,,0.00,weatherlink.com 1.10,2013-09-14 07:19:00,
2013-09-14 02:34:00,82.3,67.0,29.90,East,87,6.0,7.0,60,0.00,,,0.00,weatherlink.com 1.10,2013-09-14 07:34:00,
2013-09-14 02:49:00,81.9,67.0,29.89,ESE,110,5.0,9.0,60,0.00,,,0.00,weatherlink.com 1.10,2013-09-14 07:49:00,
2013-09-14 03:04:00,81.6,66.0,29.89,East,82,5.0,10.0,59,0.00,,,0.00,weatherlink.com 1.10,2013-09-14 08:04:00,
2013-09-14 03:19:00,81.4,66.0,29.89,East,93,9.0,9.0,59,0.00,,,0.00,weatherlink.com 1.10,2013-09-14 08:19:00,
2013-09-14 03:34:00,81.1,65.0,29.89,East,83,6.0,8.0,59,0.00,,,0.00,weatherlink.com 1.10,2013-09-14 08:34:00,
2013-09-14 03:50:00,80.7,65.0,29.88,East,79,5.0,9.0,60,0.00,,,0.00,weatherlink.com 1.10,2013-09-14 08:50:00,
2013-09-14 04:05:00,80.5,65.0,29.88,ENE,77,4.0,8.0,60,0.00,,,0.00,weatherlink.com 1.10,2013-09-14 09:05:00,
2013-09-14 04:20:00,77.8,70.0,29.88,SE,127,3.0,9.0,76,0.00,,,0.00,weatherlink.com 1.10,2013-09-14 09:20:00,
2013-09-14 04:35:00,77.5,67.0,29.88,East,93,5.0,10.0,71,0.00,,,0.00,weatherlink.com 1.10,2013-09-14 09:35:00,
2013-09-14 04:50:00,79.2,66.0,29.88,East,91,7.0,8.0,64,0.00,,,0.00,weatherlink.com 1.10,2013-09-14 09:50:00,
2013-09-14 05:05:00,79.4,66.0,29.89,ESE,115,5.0,9.0,63,0.00,,,0.00,weatherlink.com 1.10,2013-09-14 10:05:00,
2013-09-14 05:20:00,79.2,65.0,29.89,East,93,5.0,8.0,63,0.00,,,0.00,weatherlink.com 1.10,2013-09-14 10:20:00,
2013-09-14 05:35:00,78.9,65.0,29.89,East,93,6.0,10.0,63,0.00,,,0.00,weatherlink.com 1.10,2013-09-14 10:35:00,
2013-09-14 05:50:00,78.7,65.0,29.89,ESE,105,6.0,10.0,64,0.00,,,0.00,weatherlink.com 1.10,2013-09-14 10:50:00,
2013-09-14 06:05:00,78.3,66.0,29.90,East,82,4.0,10.0,65,0.00,,,0.00,weatherlink.com 1.10,2013-09-14 11:05:00,
2013-09-14 06:20:00,78.0,65.0,29.90,East,90,6.0,8.0,65,0.00,,,0.00,weatherlink.com 1.10,2013-09-14 11:20:00,
2013-09-14 06:35:00,77.7,65.0,29.90,East,82,4.0,11.0,66,0.00,,,0.00,weatherlink.com 1.10,2013-09-14 11:35:00,
2013-09-14 06:50:00,77.6,65.0,29.91,ENE,76,7.0,10.0,66,0.00,,,0.00,weatherlink.com 1.10,2013-09-14 11:50:00,
2013-09-14 07:05:00,77.2,65.0,29.91,East,79,5.0,10.0,65,0.00,,,0.00,weatherlink.com 1.10,2013-09-14 12:05:00,
2013-09-14 07:20:00,77.0,64.0,29.91,East,81,6.0,12.0,64,0.00,,,0.00,weatherlink.com 1.10,2013-09-14 12:20:00,
2013-09-14 07:35:00,76.8,64.0,29.92,East,89,7.0,10.0,64,0.00,,,0.00,weatherlink.com 1.10,2013-09-14 12:35:00,
2013-09-14 07:50:00,76.8,64.0,29.93,East,79,4.0,9.0,64,0.00,,,0.00,weatherlink.com 1.10,2013-09-14 12:50:00,
2013-09-14 08:05:00,77.0,63.0,29.93,ESE,103,8.0,9.0,63,0.00,,,0.00,weatherlink.com 1.10,2013-09-14 13:05:00,
2013-09-14 08:20:00,77.2,63.0,29.94,ESE,115,6.0,8.0,62,0.00,,,0.00,weatherlink.com 1.10,2013-09-14 13:20:00,
2013-09-14 08:35:00,77.4,63.0,29.93,East,94,7.0,14.0,61,0.00,,,0.00,weatherlink.com 1.10,2013-09-14 13:35:00,
2013-09-14 08:50:00,77.3,63.0,29.94,East,86,5.0,11.0,61,0.00,,,0.00,weatherlink.com 1.10,2013-09-14 13:50:00,
2013-09-14 09:05:00,77.9,62.0,29.94,East,97,6.0,11.0,59,0.00,,,0.00,weatherlink.com 1.10,2013-09-14 14:05:00,
2013-09-14 09:20:00,78.1,62.0,29.94,East,86,8.0,11.0,58,0.00,,,0.00,weatherlink.com 1.10,2013-09-14 14:20:00,
2013-09-14 09:35:00,78.8,62.0,29.95,East,86,5.0,10.0,57,0.00,,,0.00,weatherlink.com 1.10,2013-09-14 14:35:00,
2013-09-14 09:50:00,79.0,62.0,29.95,East,101,10.0,11.0,56,0.00,,,0.00,weatherlink.com 1.10,2013-09-14 14:50:00,
2013-09-14 10:05:00,79.9,62.0,29.95,East,93,8.0,10.0,55,0.00,,,0.00,weatherlink.com 1.10,2013-09-14 15:05:00,
2013-09-14 10:20:00,80.1,62.0,29.96,ESE,112,4.0,11.0,54,0.00,,,0.00,weatherlink.com 1.10,2013-09-14 15:20:00,
2013-09-14 10:35:00,80.6,62.0,29.96,ESE,112,5.0,11.0,54,0.00,,,0.00,weatherlink.com 1.10,2013-09-14 15:35:00,
2013-09-14 10:50:00,81.5,63.0,29.96,East,79,6.0,10.0,53,0.00,,,0.00,weatherlink.com 1.10,2013-09-14 15:50:00,
2013-09-14 11:05:00,82.1,63.0,29.96,ESE,104,6.0,11.0,52,0.00,,,0.00,weatherlink.com 1.10,2013-09-14 16:05:00,
2013-09-14 11:20:00,82.8,64.0,29.96,SE,138,4.0,10.0,53,0.00,,,0.00,weatherlink.com 1.10,2013-09-14 16:20:00,
2013-09-14 11:35:00,83.5,63.0,29.96,ENE,70,8.0,10.0,50,0.00,,,0.00,weatherlink.com 1.10,2013-09-14 16:35:00,
2013-09-14 11:50:00,84.3,64.0,29.96,East,96,5.0,9.0,50,0.00,,,0.00,weatherlink.com 1.10,2013-09-14 16:50:00,
2013-09-14 12:05:00,84.9,64.0,29.95,ENE,75,5.0,9.0,49,0.00,,,0.00,weatherlink.com 1.10,2013-09-14 17:05:00,
2013-09-14 12:20:00,86.2,64.0,29.95,ENE,72,5.0,7.0,47,0.00,,,0.00,weatherlink.com 1.10,2013-09-14 17:20:00,
2013-09-14 12:35:00,86.1,64.0,29.95,NE,49,7.0,10.0,47,0.00,,,0.00,weatherlink.com 1.10,2013-09-14 17:35:00,
2013-09-14 12:50:00,87.0,64.0,29.94,ESE,103,3.0,12.0,46,0.00,,,0.00,weatherlink.com 1.10,2013-09-14 17:50:00,
2013-09-14 13:05:00,87.3,63.0,29.94,ESE,110,9.0,10.0,45,0.00,,,0.00,weatherlink.com 1.10,2013-09-14 18:05:00,
2013-09-14 13:20:00,88.4,64.0,29.93,East,84,1.0,10.0,45,0.00,,,0.00,weatherlink.com 1.10,2013-09-14 18:20:00,
2013-09-14 13:36:00,89.2,64.0,29.93,ENE,77,5.0,11.0,43,0.00,,,0.00,weatherlink.com 1.10,2013-09-14 18:36:00,
2013-09-14 13:51:00,89.8,64.0,29.92,NE,56,2.0,9.0,43,0.00,,,0.00,weatherlink.com 1.10,2013-09-14 18:51:00,
2013-09-14 14:06:00,90.3,64.0,29.91,SE,129,1.0,9.0,42,0.00,,,0.00,weatherlink.com 1.10,2013-09-14 19:06:00,
2013-09-14 14:21:00,90.6,64.0,29.90,ENE,68,6.0,8.0,42,0.00,,,0.00,weatherlink.com 1.10,2013-09-14 19:21:00,
2013-09-14 14:36:00,91.4,65.0,29.90,ENE,75,8.0,11.0,41,0.00,,,0.00,weatherlink.com 1.10,2013-09-14 19:36:00,
2013-09-14 14:51:00,91.8,64.0,29.89,ESE,107,3.0,15.0,40,0.00,,,0.00,weatherlink.com 1.10,2013-09-14 19:51:00,
2013-09-14 15:06:00,92.2,65.0,29.89,ENE,77,8.0,12.0,40,0.00,,,0.00,weatherlink.com 1.10,2013-09-14 20:06:00,
2013-09-14 15:21:00,92.7,64.0,29.88,East,85,10.0,10.0,39,0.00,,,0.00,weatherlink.com 1.10,2013-09-14 20:21:00,
2013-09-14 15:36:00,92.7,64.0,29.87,ENE,77,7.0,9.0,39,0.00,,,0.00,weatherlink.com 1.10,2013-09-14 20:36:00,
2013-09-14 15:51:00,93.0,65.0,29.87,ENE,60,3.0,7.0,39,0.00,,,0.00,weatherlink.com 1.10,2013-09-14 20:51:00,
2013-09-14 16:06:00,93.0,65.0,29.86,ENE,63,4.0,10.0,39,0.00,,,0.00,weatherlink.com 1.10,2013-09-14 21:06:00,
2013-09-14 16:21:00,93.3,64.0,29.86,ESE,105,8.0,10.0,38,0.00,,,0.00,weatherlink.com 1.10,2013-09-14 21:21:00,
2013-09-14 16:36:00,93.5,64.0,29.86,ESE,107,3.0,8.0,38,0.00,,,0.00,weatherlink.com 1.10,2013-09-14 21:36:00,
2013-09-14 16:51:00,93.9,65.0,29.85,ENE,76,4.0,8.0,38,0.00,,,0.00,weatherlink.com 1.10,2013-09-14 21:51:00,
2013-09-14 17:06:00,93.9,64.0,29.85,ESE,103,4.0,12.0,37,0.00,,,0.00,weatherlink.com 1.10,2013-09-14 22:06:00,
2013-09-14 17:21:00,94.2,64.0,29.85,East,101,6.0,12.0,37,0.00,,,0.00,weatherlink.com 1.10,2013-09-14 22:21:00,
2013-09-14 17:36:00,94.1,64.0,29.85,East,85,6.0,10.0,37,0.00,,,0.00,weatherlink.com 1.10,2013-09-14 22:36:00,
2013-09-14 17:51:00,94.2,64.0,29.85,ENE,69,6.0,11.0,37,0.00,,,0.00,weatherlink.com 1.10,2013-09-14 22:51:00,
2013-09-14 18:06:00,93.7,64.0,29.85,ESE,107,6.0,9.0,37,0.00,,,0.00,weatherlink.com 1.10,2013-09-14 23:06:00,
2013-09-14 18:21:00,93.5,64.0,29.85,East,79,6.0,9.0,37,0.00,,,0.00,weatherlink.com 1.10,2013-09-14 23:21:00,
2013-09-14 18:36:00,93.2,64.0,29.85,ENE,72,8.0,12.0,38,0.00,,,0.00,weatherlink.com 1.10,2013-09-14 23:36:00,
2013-09-14 18:51:00,92.7,64.0,29.85,East,87,7.0,10.0,38,0.00,,,0.00,weatherlink.com 1.10,2013-09-14 23:51:00,
2013-09-14 19:06:00,92.0,64.0,29.85,East,98,3.0,10.0,39,0.00,,,0.00,weatherlink.com 1.10,2013-09-15 00:06:00,
2013-09-14 19:21:00,91.2,64.0,29.85,East,81,6.0,9.0,40,0.00,,,0.00,weatherlink.com 1.10,2013-09-15 00:21:00,
2013-09-14 19:36:00,90.4,64.0,29.86,East,85,5.0,8.0,41,0.00,,,0.00,weatherlink.com 1.10,2013-09-15 00:36:00,
2013-09-14 19:51:00,89.8,64.0,29.86,ENE,70,7.0,10.0,42,0.00,,,0.00,weatherlink.com 1.10,2013-09-15 00:51:00,
2013-09-14 20:06:00,89.4,63.0,29.87,East,91,4.0,9.0,42,0.00,,,0.00,weatherlink.com 1.10,2013-09-15 01:06:00,
2013-09-14 20:21:00,88.7,63.0,29.88,East,86,5.0,8.0,43,0.00,,,0.00,weatherlink.com 1.10,2013-09-15 01:21:00,
2013-09-14 20:36:00,88.1,64.0,29.88,East,89,4.0,5.0,44,0.00,,,0.00,weatherlink.com 1.10,2013-09-15 01:36:00,
2013-09-14 20:51:00,87.5,64.0,29.89,East,90,4.0,5.0,45,0.00,,,0.00,weatherlink.com 1.10,2013-09-15 01:51:00,
2013-09-14 21:06:00,86.9,64.0,29.90,East,89,2.0,4.0,46,0.00,,,0.00,weatherlink.com 1.10,2013-09-15 02:06:00,
2013-09-14 21:21:00,86.3,64.0,29.91,East,82,4.0,5.0,47,0.00,,,0.00,weatherlink.com 1.10,2013-09-15 02:21:00,
2013-09-14 21:36:00,85.9,63.0,29.91,East,93,4.0,6.0,47,0.00,,,0.00,weatherlink.com 1.10,2013-09-15 02:36:00,
2013-09-14 21:51:00,85.5,64.0,29.92,East,95,3.0,5.0,48,0.00,,,0.00,weatherlink.com 1.10,2013-09-15 02:51:00,
2013-09-14 22:06:00,85.2,63.0,29.92,East,88,3.0,6.0,48,0.00,,,0.00,weatherlink.com 1.10,2013-09-15 03:06:00,
2013-09-14 22:21:00,84.9,63.0,29.93,East,81,4.0,8.0,48,0.00,,,0.00,weatherlink.com 1.10,2013-09-15 03:21:00,
2013-09-14 22:36:00,84.6,63.0,29.93,East,91,4.0,7.0,48,0.00,,,0.00,weatherlink.com 1.10,2013-09-15 03:36:00,
2013-09-14 22:51:00,84.3,63.0,29.93,East,84,5.0,7.0,49,0.00,,,0.00,weatherlink.com 1.10,2013-09-15 03:51:00,
2013-09-14 23:06:00,83.9,63.0,29.93,East,91,4.0,8.0,49,0.00,,,0.00,weatherlink.com 1.10,2013-09-15 04:06:00,
2013-09-14 23:21:00,83.6,62.0,29.93,East,93,4.0,7.0,49,0.00,,,0.00,weatherlink.com 1.10,2013-09-15 04:21:00,
2013-09-14 23:36:00,83.4,62.0,29.93,ENE,77,4.0,6.0,49,0.00,,,0.00,weatherlink.com 1.10,2013-09-15 04:36:00,
2013-09-14 23:51:00,83.4,62.0,29.93,East,96,6.0,9.0,48,0.00,,,0.00,weatherlink.com 1.10,2013-09-15 04:51:00,